Time;durP1;ratioP1;P1;durP2;ratioP2;P2;SDS_P1;SDS_P2;PMS_P1;PMS_P2;Temp;Humidity;BMP_temperature;BMP_pressure;BME280_temperature;BME280_humidity;BME280_pressure;Samples;Min_cycle;Max_cycle;Signal;HPM_P1;HPM_P2
2022/06/09 00:01:58;;;;;;;0.10;0.10;;;14.40;99.90;;;;;;5062064;28;20044;-70
2022/06/09 00:04:27;;;;;;;0.60;0.20;;;14.40;99.90;;;;;;5063681;28;20083;-70
2022/06/09 00:07:10;;;;;;;0.52;0.20;;;14.30;99.90;;;;;;5063580;28;20393;-70
2022/06/09 00:09:40;;;;;;;0.50;0.20;;;14.30;99.90;;;;;;5061087;28;20268;-70
2022/06/09 00:12:07;;;;;;;0.47;0.20;;;14.20;99.90;;;;;;5062762;28;20077;-70
2022/06/09 00:14:33;;;;;;;0.68;0.22;;;14.20;99.90;;;;;;5062009;28;20021;-70
2022/06/09 00:16:59;;;;;;;0.68;0.30;;;14.20;99.90;;;;;;5063596;28;20043;-70
2022/06/09 00:19:25;;;;;;;0.25;0.20;;;14.20;99.90;;;;;;5062710;28;20107;-70
2022/06/09 00:21:51;;;;;;;0.47;0.20;;;14.10;99.90;;;;;;5061315;28;20033;-70
2022/06/09 00:24:17;;;;;;;0.57;0.20;;;14.10;99.90;;;;;;5062195;28;20035;-70
2022/06/09 00:26:43;;;;;;;0.60;0.20;;;14.00;99.90;;;;;;5061808;28;20041;-71
2022/06/09 00:29:09;;;;;;;0.93;0.43;;;14.00;99.90;;;;;;5063744;28;20097;-70
2022/06/09 00:31:35;;;;;;;0.32;0.20;;;13.90;99.90;;;;;;5061690;28;20024;-70
2022/06/09 00:34:01;;;;;;;0.60;0.20;;;13.90;99.90;;;;;;5063462;28;20025;-70
2022/06/09 00:36:27;;;;;;;0.50;0.20;;;13.90;99.90;;;;;;5062314;28;20033;-70
2022/06/09 00:38:53;;;;;;;0.60;0.20;;;13.80;99.90;;;;;;5062939;28;20040;-70
2022/06/09 00:41:18;;;;;;;0.20;0.20;;;13.80;99.90;;;;;;5063056;28;20029;-71
2022/06/09 00:43:45;;;;;;;0.70;0.20;;;13.70;99.90;;;;;;5061679;28;20048;-70
2022/06/09 00:46:10;;;;;;;0.73;0.30;;;13.70;99.90;;;;;;5063557;28;20017;-70
2022/06/09 00:48:44;;;;;;;0.45;0.20;;;13.60;99.90;;;;;;5061399;28;20032;-71
2022/06/09 00:51:28;;;;;;;0.55;0.20;;;13.60;99.90;;;;;;5062700;28;20105;-70
2022/06/09 00:54:01;;;;;;;0.50;0.30;;;13.60;99.90;;;;;;5062348;28;20084;-70
2022/06/09 00:56:27;;;;;;;0.45;0.20;;;13.60;99.90;;;;;;5063686;28;20029;-71
2022/06/09 00:58:55;;;;;;;0.38;0.20;;;13.50;99.90;;;;;;5065565;28;20021;-70
2022/06/09 01:01:23;;;;;;;0.40;0.20;;;13.50;99.90;;;;;;5063353;28;20028;-70
2022/06/09 01:04:01;;;;;;;1.67;0.65;;;13.50;99.90;;;;;;5065248;28;20060;-70
2022/06/09 01:06:34;;;;;;;0.55;0.20;;;13.50;99.90;;;;;;5063938;28;20035;-70
2022/06/09 01:09:11;;;;;;;0.68;0.28;;;13.50;99.90;;;;;;5062616;28;20043;-71
2022/06/09 01:11:38;;;;;;;0.80;0.30;;;13.40;99.90;;;;;;5062913;28;20025;-70
2022/06/09 01:14:05;;;;;;;0.38;0.20;;;13.40;99.90;;;;;;5061077;28;20083;-70
2022/06/09 01:16:45;;;;;;;0.20;0.20;;;13.50;99.90;;;;;;5062803;28;20390;-70
2022/06/09 01:19:21;;;;;;;0.45;0.20;;;13.50;99.90;;;;;;5061353;28;20249;-70
2022/06/09 01:22:23;;;;;;;0.45;0.20;;;13.50;99.90;;;;;;5061610;28;20075;-71
2022/06/09 01:25:01;;;;;;;0.52;0.22;;;13.50;99.90;;;;;;5062458;28;20053;-70
2022/06/09 01:28:11;;;;;;;0.43;0.20;;;13.40;99.90;;;;;;5059655;28;20025;-71
2022/06/09 01:31:22;;;;;;;0.30;0.20;;;13.40;99.90;;;;;;5055807;28;20082;-70
2022/06/09 01:34:09;;;;;;;0.40;0.20;;;13.40;99.90;;;;;;5053754;28;20060;-70
2022/06/09 01:36:41;;;;;;;0.40;0.20;;;13.40;99.90;;;;;;5061226;28;20044;-69
2022/06/09 01:39:07;;;;;;;;;;;13.40;99.90;;;;;;5061973;28;20487;-70
2022/06/09 01:41:33;;;;;;;0.70;0.30;;;13.40;99.90;;;;;;5062138;28;19915;-70
2022/06/09 01:44:00;;;;;;;0.73;0.30;;;13.30;99.90;;;;;;5060254;28;20039;-70
2022/06/09 01:46:28;;;;;;;0.38;0.20;;;13.30;99.90;;;;;;5061041;28;20017;-71
2022/06/09 01:48:58;;;;;;;0.50;0.20;;;13.20;99.90;;;;;;5060357;28;20040;-70
2022/06/09 01:51:27;;;;;;;0.45;0.20;;;13.10;99.90;;;;;;5061317;28;20025;-69
2022/06/09 01:53:58;;;;;;;0.65;0.30;;;13.10;99.90;;;;;;5060973;28;20029;-69
2022/06/09 01:56:43;;;;;;;0.53;0.20;;;13.00;99.90;;;;;;5060808;28;20112;-69
2022/06/09 01:59:17;;;;;;;0.50;0.22;;;13.00;99.90;;;;;;5062223;28;20275;-69
2022/06/09 02:01:48;;;;;;;0.60;0.20;;;12.90;99.90;;;;;;5060105;28;20039;-69
2022/06/09 02:04:20;;;;;;;0.40;0.20;;;12.90;99.90;;;;;;5061808;28;20100;-69
2022/06/09 02:06:46;;;;;;;;;;;12.90;99.90;;;;;;5061642;28;20025;-69
2022/06/09 02:09:11;;;;;;;0.30;0.20;;;12.80;99.90;;;;;;5060587;28;20321;-69
2022/06/09 02:11:53;;;;;;;0.30;0.20;;;12.80;99.90;;;;;;5061971;28;20025;-69
2022/06/09 02:14:21;;;;;;;0.85;0.30;;;12.80;99.90;;;;;;5059832;28;20027;-69
2022/06/09 02:16:47;;;;;;;0.82;0.30;;;12.80;99.90;;;;;;5061513;28;20437;-70
2022/06/09 02:19:13;;;;;;;0.40;0.20;;;12.70;99.90;;;;;;5058937;28;20508;-68
2022/06/09 02:21:38;;;;;;;0.77;0.32;;;12.70;99.90;;;;;;5060223;28;20094;-69
2022/06/09 02:24:05;;;;;;;0.70;0.30;;;12.70;99.90;;;;;;5061245;28;20396;-69
2022/06/09 02:26:31;;;;;;;0.38;0.20;;;12.60;99.90;;;;;;5059734;28;20049;-69
2022/06/09 02:28:57;;;;;;;0.70;0.30;;;12.60;99.90;;;;;;5060416;28;20083;-69
2022/06/09 02:31:23;;;;;;;0.57;0.20;;;12.60;99.90;;;;;;5059549;28;20427;-69
2022/06/09 02:33:50;;;;;;;0.52;0.25;;;12.60;99.90;;;;;;5061766;28;20047;-69
2022/06/09 02:36:16;;;;;;;0.85;0.30;;;12.50;99.90;;;;;;5060101;28;20037;-69
2022/06/09 02:38:41;;;;;;;0.20;0.20;;;12.40;99.90;;;;;;5061009;28;20036;-70
2022/06/09 02:41:07;;;;;;;0.80;0.30;;;12.40;99.90;;;;;;5060822;28;20044;-70
2022/06/09 02:43:33;;;;;;;0.43;0.30;;;12.40;99.90;;;;;;5060138;28;20096;-69
2022/06/09 02:46:01;;;;;;;0.50;0.30;;;12.40;99.90;;;;;;5061438;28;20029;-69
2022/06/09 02:48:26;;;;;;;0.20;0.20;;;12.40;99.90;;;;;;5059193;28;20128;-69
2022/06/09 02:50:52;;;;;;;0.40;0.20;;;12.40;99.90;;;;;;5061406;28;20037;-69
2022/06/09 02:53:18;;;;;;;0.77;0.30;;;12.30;99.90;;;;;;5059256;28;20029;-69
2022/06/09 02:55:44;;;;;;;0.85;0.30;;;12.30;99.90;;;;;;5060925;28;20049;-69
2022/06/09 02:58:10;;;;;;;0.90;0.30;;;12.30;99.90;;;;;;5060451;28;20040;-69
2022/06/09 03:00:37;;;;;;;0.98;0.30;;;12.30;99.90;;;;;;5060081;28;20032;-69
2022/06/09 03:03:06;;;;;;;0.70;0.30;;;12.20;99.90;;;;;;5061304;28;20358;-70
2022/06/09 03:05:34;;;;;;;0.63;0.30;;;12.30;99.90;;;;;;5059225;28;20085;-70
2022/06/09 03:08:00;;;;;;;1.02;0.35;;;12.30;99.90;;;;;;5061195;28;20485;-69
2022/06/09 03:10:26;;;;;;;0.68;0.30;;;12.30;99.90;;;;;;5059680;28;20036;-69
2022/06/09 03:12:52;;;;;;;0.25;0.20;;;12.30;99.90;;;;;;5059510;28;20025;-69
2022/06/09 03:15:22;;;;;;;0.68;0.30;;;12.30;99.90;;;;;;5060315;28;20052;-69
2022/06/09 03:17:49;;;;;;;0.60;0.30;;;12.20;99.90;;;;;;5060117;28;20026;-69
2022/06/09 03:20:17;;;;;;;0.63;0.30;;;12.20;99.90;;;;;;5061382;28;20463;-70
2022/06/09 03:22:43;;;;;;;0.35;0.20;;;12.20;99.90;;;;;;5058568;28;20048;-69
2022/06/09 03:25:09;;;;;;;0.28;0.20;;;12.20;99.90;;;;;;5060918;28;20064;-69
2022/06/09 03:27:35;;;;;;;0.50;0.30;;;12.20;99.90;;;;;;5059568;28;20132;-69
2022/06/09 03:30:01;;;;;;;0.88;0.30;;;12.20;99.90;;;;;;5060653;28;20035;-70
2022/06/09 03:32:27;;;;;;;0.70;0.30;;;12.20;99.90;;;;;;5061651;28;20061;-69
2022/06/09 03:34:53;;;;;;;0.38;0.20;;;12.20;99.90;;;;;;5063416;28;20029;-70
2022/06/09 03:37:19;;;;;;;0.80;0.30;;;12.20;99.90;;;;;;5064594;28;20040;-70
2022/06/09 03:39:45;;;;;;;0.60;0.28;;;12.20;99.90;;;;;;5062767;28;20029;-70
2022/06/09 03:42:10;;;;;;;0.50;0.20;;;12.30;99.90;;;;;;5064768;28;20393;-70
2022/06/09 03:44:36;;;;;;;0.70;0.30;;;12.30;99.90;;;;;;5062617;28;20032;-71
2022/06/09 03:47:02;;;;;;;0.20;0.20;;;12.30;99.90;;;;;;5064335;28;20040;-70
2022/06/09 03:49:27;;;;;;;0.73;0.30;;;12.30;99.90;;;;;;5062330;28;20025;-70
2022/06/09 03:51:53;;;;;;;0.55;0.20;;;12.40;99.90;;;;;;5063046;28;20519;-70
2022/06/09 03:54:18;;;;;;;0.75;0.30;;;12.30;99.90;;;;;;5064285;28;20056;-70
2022/06/09 03:56:44;;;;;;;0.68;0.30;;;12.30;99.90;;;;;;5062353;28;20097;-70
2022/06/09 03:59:11;;;;;;;0.20;0.20;;;12.40;99.90;;;;;;5064594;28;20025;-69
2022/06/09 04:01:37;;;;;;;0.63;0.30;;;12.50;99.90;;;;;;5062543;28;20025;-69
2022/06/09 04:04:03;;;;;;;0.47;0.28;;;12.50;99.90;;;;;;5063955;28;20044;-69
2022/06/09 04:06:29;;;;;;;1.30;0.77;;;12.60;99.90;;;;;;5063062;28;20021;-69
2022/06/09 04:08:55;;;;;;;0.63;0.30;;;12.70;99.90;;;;;;5063180;28;20032;-70
2022/06/09 04:11:22;;;;;;;0.82;0.30;;;12.80;99.90;;;;;;5063675;28;20017;-71
2022/06/09 04:13:48;;;;;;;1.15;0.40;;;12.80;99.90;;;;;;5062278;28;20014;-69
2022/06/09 04:16:36;;;;;;;0.63;0.28;;;12.80;99.90;;;;;;5064067;28;20075;-69
2022/06/09 04:19:07;;;;;;;0.90;0.30;;;12.80;99.90;;;;;;5060827;28;20029;-69
2022/06/09 04:21:33;;;;;;;;;;;12.90;99.90;;;;;;5063295;28;20028;-69
2022/06/09 04:23:59;;;;;;;1.05;0.40;;;13.00;99.90;;;;;;5063325;28;19913;-70
2022/06/09 04:26:29;;;;;;;0.75;0.30;;;13.00;99.90;;;;;;5062034;28;20045;-69
2022/06/09 04:28:56;;;;;;;0.73;0.30;;;13.10;99.90;;;;;;5063905;28;20025;-70
2022/06/09 04:31:22;;;;;;;0.80;0.30;;;13.20;99.90;;;;;;5059009;28;20424;-69
2022/06/09 04:33:48;;;;;;;0.28;0.20;;;13.30;99.90;;;;;;5063662;28;20523;-69
2022/06/09 04:36:15;;;;;;;0.80;0.30;;;13.30;99.90;;;;;;5062128;28;20068;-70
2022/06/09 04:38:41;;;;;;;0.47;0.25;;;13.40;99.90;;;;;;5062870;28;20163;-69
2022/06/09 04:41:09;;;;;;;0.38;0.20;;;13.50;99.90;;;;;;5060703;28;20025;-69
2022/06/09 04:43:40;;;;;;;0.35;0.20;;;13.50;99.90;;;;;;5041466;28;20022;-70
2022/06/09 04:46:07;;;;;;;0.70;0.30;;;13.50;99.90;;;;;;5043673;28;20029;-69
2022/06/09 04:48:34;;;;;;;0.70;0.30;;;13.60;99.90;;;;;;5041304;28;20026;-69
2022/06/09 04:51:00;;;;;;;0.52;0.20;;;13.70;99.90;;;;;;5043276;28;20041;-69
2022/06/09 04:53:26;;;;;;;0.63;0.30;;;13.70;99.90;;;;;;5041295;28;20086;-70
2022/06/09 04:55:52;;;;;;;0.20;0.20;;;13.80;99.90;;;;;;5042831;28;20018;-70
2022/06/09 04:58:18;;;;;;;0.57;0.30;;;13.80;99.90;;;;;;5042590;28;20037;-69
2022/06/09 05:00:44;;;;;;;0.68;0.30;;;13.90;99.90;;;;;;5040198;28;20050;-70
2022/06/09 05:03:11;;;;;;;0.22;0.20;;;14.00;99.90;;;;;;5043256;28;20021;-69
2022/06/09 05:05:44;;;;;;;0.20;0.20;;;14.00;99.90;;;;;;5041012;28;20048;-69
2022/06/09 05:08:11;;;;;;;0.93;0.32;;;14.10;99.90;;;;;;5043019;28;20068;-69
2022/06/09 05:10:38;;;;;;;0.52;0.20;;;14.20;99.90;;;;;;5041603;28;20041;-71
2022/06/09 05:13:05;;;;;;;0.17;0.17;;;14.20;99.90;;;;;;5042238;28;20025;-69
2022/06/09 05:15:36;;;;;;;0.47;0.30;;;14.30;99.90;;;;;;5042454;28;20438;-69
2022/06/09 05:18:03;;;;;;;0.60;0.50;;;14.40;99.90;;;;;;5041060;28;20049;-69
2022/06/09 05:20:28;;;;;;;0.45;0.20;;;14.50;99.90;;;;;;5042846;28;20048;-70
2022/06/09 05:22:54;;;;;;;0.47;0.20;;;14.50;99.90;;;;;;5040488;28;20033;-70
2022/06/09 05:25:20;;;;;;;0.20;0.20;;;14.60;99.90;;;;;;5041031;28;20425;-69
2022/06/09 05:27:46;;;;;;;0.47;0.20;;;14.60;99.90;;;;;;5041358;28;20252;-70
2022/06/09 05:30:16;;;;;;;0.22;0.20;;;14.60;99.90;;;;;;5042041;28;20036;-68
2022/06/09 05:32:42;;;;;;;0.35;0.28;;;14.50;99.90;;;;;;5042228;28;20030;-69
2022/06/09 05:35:09;;;;;;;0.50;0.30;;;14.60;99.90;;;;;;5040816;28;20018;-69
2022/06/09 05:45:48;;;;;;;0.35;0.30;;;14.50;99.90;;;;;;5042577;28;20416;-68
2022/06/09 05:48:14;;;;;;;0.35;0.20;;;14.60;99.90;;;;;;5039030;28;20017;-69
2022/06/09 05:50:40;;;;;;;0.30;0.20;;;14.50;99.90;;;;;;5042567;28;20040;-69
2022/06/09 05:53:06;;;;;;;0.52;0.20;;;14.60;99.90;;;;;;5040077;28;20025;-69
2022/06/09 05:55:32;;;;;;;0.22;0.22;;;14.60;99.90;;;;;;5041421;28;20028;-69
2022/06/09 05:57:57;;;;;;;0.20;0.20;;;14.60;99.90;;;;;;5040946;28;20405;-69
2022/06/09 06:00:24;;;;;;;0.43;0.20;;;14.70;99.90;;;;;;5041093;28;20029;-69
2022/06/09 06:02:49;;;;;;;0.38;0.20;;;14.70;99.90;;;;;;5041957;28;20373;-69
2022/06/09 06:07:59;;;;;;;0.73;0.40;;;14.90;99.90;;;;;;5042216;28;20049;-69
2022/06/09 06:10:25;;;;;;;0.20;0.20;;;14.90;99.90;;;;;;5040366;28;20030;-68
2022/06/09 06:12:51;;;;;;;0.28;0.20;;;14.90;99.90;;;;;;5041339;28;20022;-69
2022/06/09 06:15:16;;;;;;;0.20;0.20;;;15.00;99.90;;;;;;5039986;28;20470;-69
2022/06/09 06:17:42;;;;;;;0.20;0.20;;;15.00;99.90;;;;;;5040496;28;20461;-69
2022/06/09 06:20:09;;;;;;;0.47;0.20;;;15.00;99.90;;;;;;5041889;28;20112;-69
2022/06/09 06:22:35;;;;;;;0.20;0.20;;;15.10;99.90;;;;;;5039302;28;20036;-69
2022/06/09 06:25:02;;;;;;;0.38;0.20;;;15.20;99.90;;;;;;5041609;28;20030;-69
2022/06/09 06:27:28;;;;;;;0.20;0.20;;;15.20;99.90;;;;;;5039887;28;20117;-69
2022/06/09 06:29:55;;;;;;;0.35;0.20;;;15.30;99.90;;;;;;5041198;28;20030;-69
2022/06/09 06:32:20;;;;;;;0.20;0.20;;;15.30;99.90;;;;;;5040853;28;20037;-69
2022/06/09 06:34:46;;;;;;;0.55;0.30;;;15.50;99.90;;;;;;5040511;28;20040;-69
2022/06/09 06:37:12;;;;;;;0.38;0.20;;;15.60;99.90;;;;;;5041482;28;20052;-68
2022/06/09 06:39:37;;;;;;;0.22;0.20;;;15.70;99.90;;;;;;5039503;28;20032;-69
2022/06/09 06:42:03;;;;;;;0.32;0.20;;;15.80;99.90;;;;;;5041620;28;20029;-69
2022/06/09 06:44:29;;;;;;;0.50;0.25;;;16.00;99.90;;;;;;5039929;28;20025;-69
2022/06/09 06:46:55;;;;;;;1.15;0.60;;;16.10;99.90;;;;;;5041295;28;20506;-69
2022/06/09 06:49:20;;;;;;;0.50;0.20;;;16.40;99.90;;;;;;5039037;28;20153;-69
2022/06/09 06:51:48;;;;;;;0.38;0.20;;;16.60;99.90;;;;;;5040099;28;20025;-69
2022/06/09 06:54:13;;;;;;;0.40;0.20;;;16.90;99.90;;;;;;5007454;28;20029;-69
2022/06/09 06:56:39;;;;;;;0.57;0.20;;;17.10;99.90;;;;;;5039401;28;20061;-69
2022/06/09 06:59:05;;;;;;;0.25;0.10;;;17.30;99.90;;;;;;5041554;28;20022;-69
2022/06/09 07:01:31;;;;;;;0.28;0.17;;;17.30;99.90;;;;;;5039388;28;20044;-69
2022/06/09 07:03:57;;;;;;;0.43;0.20;;;17.40;99.90;;;;;;5041046;28;20032;-69
2022/06/09 07:06:23;;;;;;;0.47;0.20;;;17.80;99.90;;;;;;5039929;28;20117;-68
2022/06/09 07:08:49;;;;;;;0.10;0.10;;;17.70;99.90;;;;;;5044195;28;20025;-69
2022/06/09 07:11:15;;;;;;;0.43;0.10;;;18.10;99.90;;;;;;5044983;28;20032;-69
2022/06/09 07:13:42;;;;;;;0.10;0.10;;;18.70;99.90;;;;;;5042991;28;20030;-69
2022/06/09 07:16:09;;;;;;;0.30;0.15;;;19.00;99.90;;;;;;5045189;28;20072;-69
2022/06/09 07:18:35;;;;;;;0.17;0.10;;;18.70;99.90;;;;;;5041648;28;20026;-69
2022/06/09 07:21:02;;;;;;;0.57;0.30;;;19.00;99.90;;;;;;5044870;28;20018;-69
2022/06/09 07:23:29;;;;;;;0.17;0.10;;;19.20;99.90;;;;;;5043142;28;20057;-69
2022/06/09 07:25:56;;;;;;;0.15;0.10;;;19.10;99.90;;;;;;5043788;28;20045;-70
2022/06/09 07:28:22;;;;;;;0.40;0.10;;;18.80;99.90;;;;;;5044568;28;20038;-69
2022/06/09 07:30:48;;;;;;;0.65;0.20;;;18.90;99.90;;;;;;5043429;28;20367;-69
2022/06/09 07:33:15;;;;;;;0.30;0.20;;;18.80;99.90;;;;;;5043568;28;20049;-69
2022/06/09 07:35:41;;;;;;;0.28;0.10;;;19.00;99.90;;;;;;5042728;28;20029;-69
2022/06/09 07:38:10;;;;;;;0.30;0.20;;;19.70;99.90;;;;;;5044446;28;20116;-70
2022/06/09 07:40:38;;;;;;;0.00;0.00;;;19.70;99.90;;;;;;5043610;28;20041;-69
2022/06/09 07:43:04;;;;;;;0.55;0.20;;;19.90;99.90;;;;;;5043668;28;20029;-69
2022/06/09 07:45:31;;;;;;;0.63;0.20;;;19.90;99.90;;;;;;5044183;28;20044;-69
2022/06/09 07:47:57;;;;;;;0.10;0.10;;;19.90;99.90;;;;;;5042597;28;20044;-69
2022/06/09 07:50:23;;;;;;;0.13;0.13;;;20.00;99.90;;;;;;5044479;28;20022;-68
2022/06/09 07:52:49;;;;;;;0.17;0.17;;;20.20;99.90;;;;;;5040561;28;20052;-68
2022/06/09 07:55:16;;;;;;;0.28;0.10;;;20.10;99.90;;;;;;5044403;28;20029;-68
2022/06/09 07:57:42;;;;;;;0.25;0.10;;;20.50;99.90;;;;;;5042966;28;20084;-70
2022/06/09 08:00:12;;;;;;;0.10;0.10;;;20.90;99.90;;;;;;5043614;28;20029;-68
2022/06/09 08:02:37;;;;;;;0.35;0.30;;;21.30;99.90;;;;;;5042554;28;20076;-67
2022/06/09 08:05:04;;;;;;;0.28;0.10;;;21.20;99.90;;;;;;5042504;28;20408;-68
2022/06/09 08:07:30;;;;;;;0.52;0.35;;;21.10;99.90;;;;;;5042777;28;20446;-67
2022/06/09 08:09:55;;;;;;;0.30;0.10;;;20.80;99.90;;;;;;5042246;28;20036;-67
2022/06/09 08:12:21;;;;;;;0.10;0.10;;;21.10;99.90;;;;;;5043948;28;20466;-67
2022/06/09 08:14:47;;;;;;;0.10;0.10;;;21.30;99.90;;;;;;5042700;28;20029;-68
2022/06/09 08:17:12;;;;;;;0.00;0.00;;;21.10;99.90;;;;;;5043038;28;20064;-67
2022/06/09 08:19:38;;;;;;;0.93;0.38;;;21.20;99.90;;;;;;5042963;28;20026;-68
2022/06/09 08:22:04;;;;;;;0.00;0.00;;;21.50;99.90;;;;;;5041817;28;20025;-68
2022/06/09 08:24:33;;;;;;;0.10;0.10;;;21.50;99.90;;;;;;5042531;28;20034;-67
2022/06/09 08:27:01;;;;;;;0.10;0.10;;;21.90;99.90;;;;;;5041542;28;20057;-67
2022/06/09 08:29:29;;;;;;;0.10;0.10;;;22.40;99.90;;;;;;5043730;28;20028;-67
2022/06/09 08:31:54;;;;;;;0.10;0.10;;;22.80;99.90;;;;;;5042350;28;20026;-68
2022/06/09 08:34:20;;;;;;;0.38;0.20;;;22.50;99.90;;;;;;5042986;28;20109;-68
2022/06/09 08:36:46;;;;;;;0.17;0.10;;;21.90;99.90;;;;;;5041543;28;20060;-68
2022/06/09 08:39:11;;;;;;;0.20;0.20;;;21.80;99.90;;;;;;5040650;28;20021;-68
2022/06/09 08:42:16;;;;;;;0.10;0.10;;;21.80;99.90;;;;;;5043748;28;20591;-69
2022/06/09 08:44:46;;;;;;;0.10;0.10;;;22.00;99.90;;;;;;5040791;28;20044;-68
2022/06/09 08:47:24;;;;;;;0.20;0.17;;;22.60;99.90;;;;;;5042676;28;20053;-68
2022/06/09 08:50:03;;;;;;;0.00;0.00;;;22.70;99.90;;;;;;5043136;28;20040;-68
2022/06/09 08:52:44;;;;;;;0.22;0.20;;;23.60;99.90;;;;;;5039618;28;20034;-69
2022/06/09 08:55:18;;;;;;;0.10;0.10;;;23.80;99.90;;;;;;5043341;28;20562;-68
2022/06/09 08:57:45;;;;;;;0.10;0.10;;;23.30;99.90;;;;;;5041753;28;20087;-68
2022/06/09 09:00:15;;;;;;;0.10;0.10;;;22.80;99.90;;;;;;5042312;28;20084;-68
2022/06/09 09:02:44;;;;;;;0.10;0.10;;;23.00;99.90;;;;;;5043066;28;20021;-68
2022/06/09 09:05:30;;;;;;;0.17;0.10;;;23.10;99.90;;;;;;5041159;28;20021;-68
2022/06/09 09:07:59;;;;;;;0.15;0.10;;;23.10;99.90;;;;;;5043015;28;20033;-68
2022/06/09 09:10:49;;;;;;;0.17;0.10;;;22.50;99.90;;;;;;5041533;28;20030;-68
2022/06/09 09:13:21;;;;;;;0.22;0.10;;;21.80;99.90;;;;;;5041674;28;20055;-68
2022/06/09 09:15:58;;;;;;;0.10;0.10;;;22.40;99.90;;;;;;5042936;28;20021;-68
2022/06/09 09:18:28;;;;;;;0.10;0.10;;;22.70;99.90;;;;;;5041006;28;20531;-68
2022/06/09 09:21:28;;;;;;;0.10;0.10;;;22.20;99.90;;;;;;5042729;28;20439;-68
2022/06/09 09:24:21;;;;;;;0.10;0.10;;;22.50;99.90;;;;;;5040311;28;20045;-68
2022/06/09 09:27:11;;;;;;;0.10;0.10;;;22.80;99.90;;;;;;5040299;28;20049;-69
2022/06/09 09:30:08;;;;;;;0.20;0.10;;;23.00;99.90;;;;;;5042551;28;20053;-68
2022/06/09 09:32:46;;;;;;;0.10;0.10;;;23.10;99.90;;;;;;5038057;28;20478;-68
2022/06/09 09:35:18;;;;;;;0.10;0.10;;;23.60;99.90;;;;;;5040345;28;20025;-67
2022/06/09 09:37:48;;;;;;;0.10;0.10;;;23.80;99.90;;;;;;5042387;28;20048;-68
2022/06/09 09:40:19;;;;;;;0.20;0.10;;;23.40;99.80;;;;;;5040712;28;20022;-68
2022/06/09 09:42:45;;;;;;;;;;;23.00;99.90;;;;;;5042613;28;20013;-68
2022/06/09 09:45:11;;;;;;;0.13;0.10;;;22.30;99.90;;;;;;5041699;28;19968;-68
2022/06/09 09:47:51;;;;;;;0.08;0.08;;;22.10;99.90;;;;;;5041147;28;20053;-68
2022/06/09 09:50:45;;;;;;;0.77;0.40;;;22.40;99.90;;;;;;5042428;28;20036;-67
2022/06/09 09:53:19;;;;;;;0.17;0.10;;;23.20;99.90;;;;;;5040227;28;20100;-68
2022/06/09 09:56:10;;;;;;;0.10;0.10;;;23.50;99.90;;;;;;5039927;28;20025;-68
2022/06/09 09:58:46;;;;;;;0.25;0.20;;;23.90;99.90;;;;;;5042209;28;20037;-68
2022/06/09 10:01:14;;;;;;;0.00;0.00;;;23.80;99.90;;;;;;5040052;28;20022;-68
2022/06/09 10:09:38;;;;;;;0.08;0.00;;;24.60;96.90;;;;;;5040888;28;20048;-68
2022/06/09 10:12:09;;;;;;;0.20;0.10;;;24.80;98.80;;;;;;5044243;28;20067;-68
2022/06/09 10:14:50;;;;;;;0.05;0.05;;;24.90;99.90;;;;;;5042056;28;20081;-68
2022/06/09 10:17:32;;;;;;;0.00;0.00;;;25.30;79.80;;;;;;5041832;28;20129;-68
2022/06/09 10:20:17;;;;;;;0.10;0.10;;;25.40;86.60;;;;;;5042266;28;20021;-69
2022/06/09 10:22:54;;;;;;;0.10;0.10;;;25.20;76.10;;;;;;5039458;28;20044;-69
2022/06/09 10:25:23;;;;;;;0.00;0.00;;;25.00;70.20;;;;;;5041387;28;20095;-68
2022/06/09 10:27:57;;;;;;;0.10;0.10;;;25.10;70.40;;;;;;5040552;28;20096;-69
2022/06/09 10:30:35;;;;;;;0.00;0.00;;;25.20;83.70;;;;;;5040473;28;20144;-67
2022/06/09 10:33:40;;;;;;;0.10;0.10;;;24.70;77.20;;;;;;5041957;28;20033;-68
2022/06/09 10:36:19;;;;;;;0.03;0.03;;;24.60;91.80;;;;;;5040245;28;20029;-68
2022/06/09 10:39:37;;;;;;;0.05;0.05;;;24.60;97.10;;;;;;5039393;28;20381;-68
2022/06/09 10:42:35;;;;;;;0.10;0.10;;;24.00;99.20;;;;;;5031839;28;20045;-67
2022/06/09 10:45:13;;;;;;;0.03;0.00;;;24.30;96.60;;;;;;5040533;28;20029;-67
2022/06/09 10:56:49;;;;;;;0.25;0.10;;;24.10;90.40;;;;;;5039847;28;20180;-68
2022/06/09 10:59:24;;;;;;;0.10;0.10;;;24.50;94.00;;;;;;5041371;28;20030;-68
2022/06/09 11:01:50;;;;;;;0.20;0.13;;;24.60;83.70;;;;;;5040026;28;20044;-67
2022/06/09 11:04:18;;;;;;;0.00;0.00;;;25.00;91.10;;;;;;5040563;28;20038;-68
2022/06/09 11:06:53;;;;;;;0.20;0.20;;;25.00;78.20;;;;;;5040646;28;20028;-67
2022/06/09 11:09:26;;;;;;;0.00;0.00;;;25.50;74.10;;;;;;5038024;28;20029;-68
2022/06/09 11:12:22;;;;;;;0.70;0.30;;;25.70;95.30;;;;;;5041548;28;20099;-68
2022/06/09 11:15:18;;;;;;;0.08;0.08;;;25.00;69.40;;;;;;5039920;28;20029;-69
2022/06/09 11:18:12;;;;;;;0.00;0.00;;;25.40;74.10;;;;;;5039626;28;20416;-69
2022/06/09 11:20:43;;;;;;;0.00;0.00;;;24.90;73.00;;;;;;5041169;28;20041;-68
2022/06/09 11:23:36;;;;;;;0.10;0.10;;;24.50;92.80;;;;;;5039227;28;20526;-68
2022/06/09 11:26:41;;;;;;;0.00;0.00;;;24.60;80.90;;;;;;5039738;28;20046;-67
2022/06/09 11:29:43;;;;;;;0.00;0.00;;;24.40;80.40;;;;;;5041214;28;20032;-68
2022/06/09 11:32:21;;;;;;;0.00;0.00;;;24.90;92.20;;;;;;5040062;28;20038;-67
2022/06/09 11:35:02;;;;;;;0.08;0.08;;;24.90;82.30;;;;;;5039355;28;20025;-66
2022/06/09 11:37:42;;;;;;;0.10;0.10;;;24.90;93.20;;;;;;5040968;28;20045;-67
2022/06/09 11:40:13;;;;;;;0.10;0.10;;;25.00;90.50;;;;;;5039202;28;20041;-68
2022/06/09 11:42:45;;;;;;;1.95;0.57;;;25.60;75.40;;;;;;5039071;28;20025;-68
2022/06/09 11:45:39;;;;;;;0.00;0.00;;;24.80;72.30;;;;;;5040352;28;20029;-67
2022/06/09 11:48:09;;;;;;;0.03;0.03;;;24.80;70.70;;;;;;5039012;28;20064;-67
2022/06/09 11:50:44;;;;;;;0.00;0.00;;;24.80;72.10;;;;;;5039443;28;20022;-69
2022/06/09 11:53:18;;;;;;;0.17;0.10;;;25.00;92.60;;;;;;5039860;28;20022;-68
2022/06/09 11:56:02;;;;;;;0.17;0.10;;;24.60;69.80;;;;;;5042297;28;20013;-68
2022/06/09 11:58:34;;;;;;;0.20;0.10;;;24.50;74.30;;;;;;5044088;28;20103;-68
2022/06/09 12:01:27;;;;;;;0.10;0.10;;;24.90;79.70;;;;;;5042219;28;20389;-68
2022/06/09 12:04:02;;;;;;;0.10;0.10;;;24.60;83.90;;;;;;5043824;28;20549;-69
2022/06/09 12:06:54;;;;;;;0.93;0.45;;;24.60;86.50;;;;;;5043342;28;20029;-69
2022/06/09 12:09:57;;;;;;;0.10;0.10;;;24.00;71.60;;;;;;5040852;28;20144;-68
2022/06/09 12:12:37;;;;;;;0.00;0.00;;;24.20;77.30;;;;;;5042438;28;20025;-68
2022/06/09 12:15:13;;;;;;;0.00;0.00;;;24.00;90.20;;;;;;5043401;28;20021;-68
2022/06/09 12:17:56;;;;;;;0.00;0.00;;;24.20;97.50;;;;;;5042371;28;20037;-68
2022/06/09 12:20:48;;;;;;;0.10;0.10;;;24.00;97.20;;;;;;5043983;28;20036;-68
2022/06/09 12:24:04;;;;;;;0.10;0.10;;;24.00;77.70;;;;;;5033511;28;20095;-68
2022/06/09 12:26:45;;;;;;;0.10;0.10;;;23.90;72.20;;;;;;5040070;28;20341;-68
2022/06/09 12:29:30;;;;;;;0.57;0.52;;;24.50;81.90;;;;;;5043806;28;20022;-69
2022/06/09 12:32:08;;;;;;;0.20;0.20;;;24.90;89.60;;;;;;5042512;28;20033;-68
2022/06/09 12:34:59;;;;;;;0.10;0.10;;;24.90;69.80;;;;;;5042483;28;20033;-69
2022/06/09 12:37:30;;;;;;;0.08;0.08;;;25.40;73.80;;;;;;5043690;28;20087;-68
2022/06/09 12:40:12;;;;;;;0.00;0.00;;;25.50;79.80;;;;;;5041782;28;20376;-67
2022/06/09 12:42:51;;;;;;;0.00;0.00;;;24.90;65.40;;;;;;5043021;28;20025;-69
2022/06/09 12:45:30;;;;;;;0.10;0.10;;;25.30;71.20;;;;;;5041633;28;20022;-68
2022/06/09 12:47:56;;;;;;;0.10;0.10;;;25.40;65.00;;;;;;5041590;28;20080;-67
2022/06/09 12:50:30;;;;;;;0.05;0.05;;;24.50;61.30;;;;;;5043596;28;20022;-68
2022/06/09 12:52:57;;;;;;;0.13;0.13;;;24.80;65.50;;;;;;5041388;28;20025;-68
2022/06/09 12:55:30;;;;;;;0.10;0.10;;;25.20;67.20;;;;;;5042887;28;20029;-67
2022/06/09 12:58:07;;;;;;;0.00;0.00;;;25.10;65.70;;;;;;5042355;28;20034;-68
2022/06/09 13:00:37;;;;;;;0.20;0.05;;;24.90;67.20;;;;;;5041540;28;20036;-67
2022/06/09 13:03:19;;;;;;;0.20;0.10;;;24.60;64.20;;;;;;5043371;28;20056;-68
2022/06/09 13:05:45;;;;;;;0.00;0.00;;;24.60;66.50;;;;;;5041097;28;20441;-68
2022/06/09 13:08:20;;;;;;;0.00;0.00;;;24.70;68.40;;;;;;5042906;28;20093;-69
2022/06/09 13:11:00;;;;;;;0.10;0.10;;;24.20;63.00;;;;;;5042327;28;20026;-68
2022/06/09 13:13:29;;;;;;;0.17;0.10;;;24.80;66.20;;;;;;5041277;28;20071;-68
2022/06/09 13:16:00;;;;;;;0.00;0.00;;;24.40;63.80;;;;;;5043079;28;20033;-68
2022/06/09 13:18:36;;;;;;;;;;;24.20;67.40;;;;;;5041230;28;20033;-67
2022/06/09 13:21:19;;;;;;;0.10;0.10;;;24.50;65.60;;;;;;5042527;28;19905;-68
2022/06/09 13:23:49;;;;;;;0.03;0.03;;;24.00;62.20;;;;;;5041799;28;20029;-68
2022/06/09 13:26:22;;;;;;;0.00;0.00;;;24.70;68.70;;;;;;5040875;28;20056;-68
2022/06/09 13:28:50;;;;;;;0.00;0.00;;;24.40;64.00;;;;;;5041299;28;20021;-68
2022/06/09 13:31:38;;;;;;;0.10;0.10;;;24.30;61.00;;;;;;5039061;28;20030;-67
2022/06/09 13:34:12;;;;;;;0.47;0.20;;;24.30;61.50;;;;;;5042003;28;20024;-68
2022/06/09 13:36:56;;;;;;;0.10;0.10;;;24.30;60.70;;;;;;5041972;28;20033;-68
2022/06/09 13:39:49;;;;;;;0.10;0.10;;;24.40;60.90;;;;;;5040385;28;20025;-68